createdAt,value
2019-05-30T09:36:13.566Z,59.40
2019-05-30T09:38:41.712Z,58.40
2019-05-30T09:41:09.320Z,60.50
2019-05-30T09:43:36.257Z,58.70
2019-05-30T09:46:03.619Z,61.40
2019-05-30T09:48:32.999Z,58.70
2019-05-30T09:50:59.866Z,60.60
2019-05-30T09:53:26.845Z,58.70
2019-05-30T09:55:53.918Z,56.50
2019-05-30T09:58:20.860Z,58.40
2019-05-30T10:00:49.162Z,57.00
2019-05-30T10:03:17.039Z,58.70
2019-05-30T10:05:47.042Z,58.30
2019-05-30T10:08:14.295Z,56.70
2019-05-30T10:10:41.304Z,54.30
2019-05-30T10:13:08.409Z,56.50
2019-05-30T10:15:35.394Z,58.70
2019-05-30T10:18:02.815Z,57.00
2019-05-30T10:20:29.977Z,61.80
2019-05-30T10:22:57.318Z,56.70
2019-05-30T10:25:24.442Z,56.10
2019-05-30T10:27:53.218Z,56.00
2019-05-30T10:30:20.400Z,56.70
2019-05-30T10:32:48.908Z,55.60
2019-05-30T10:35:17.200Z,57.50
2019-05-30T10:37:45.287Z,57.50
2019-05-30T10:40:13.543Z,57.40
2019-05-30T10:42:40.489Z,54.80
2019-05-30T10:45:10.090Z,53.30
2019-05-30T10:47:37.167Z,53.30
2019-05-30T10:50:04.773Z,55.30
2019-05-30T10:52:32.048Z,58.60
2019-05-30T10:54:59.084Z,57.50
2019-05-30T10:57:26.021Z,55.50
2019-05-30T10:59:52.951Z,56.50
2019-05-30T11:02:20.145Z,57.20
2019-05-30T11:04:47.671Z,57.50
2019-05-30T11:07:30.190Z,57.00
2019-05-30T11:10:04.437Z,56.90
2019-05-30T11:12:31.356Z,54.30
2019-05-30T11:14:58.568Z,52.30
2019-05-30T11:17:25.918Z,53.20
2019-05-30T11:19:54.031Z,56.40
2019-05-30T11:22:21.367Z,59.70
2019-05-30T11:24:50.338Z,59.80
2019-05-30T11:27:17.348Z,61.50
2019-05-30T11:29:44.598Z,64.80
2019-05-30T11:32:11.692Z,65.50
2019-05-30T11:34:38.589Z,63.50
2019-05-30T11:37:18.613Z,65.70
2019-05-30T11:39:34.432Z,59.30
2019-05-30T11:42:01.828Z,58.10
2019-05-30T11:44:29.005Z,58.40
2019-05-30T11:46:56.150Z,58.70
2019-05-30T11:49:23.091Z,60.80
